AirNav   Duncan Aviation - Near you to keep you flying
 
 1417 users online  

4IS5 Smith Airport
Hecker, Illinois, USA

GOING TO HECKER?


FAA INFORMATION EFFECTIVE 01 DECEMBER 2022

Location

FAA Identifier: 4IS5
Lat/Long: 38-15-30.1790N 089-56-17.0000W
38-15.502983N 089-56.283333W
38.2583831,-89.9380556
(estimated)
Elevation: 420 ft. / 128 m (estimated)
Variation: 02E (1984)
From city: 4 miles SE of HECKER, IL
Time zone: UTC -6 (UTC -5 during Daylight Saving Time)
Zip code: 62278

Airport Operations

Airport use: Private use. Permission required prior to landing
Activation date: 06/1984
Control tower: no
ARTCC: KANSAS CITY CENTER
FSS: COLUMBIA FLIGHT SERVICE STATION
Attendance: UNATNDD
Wind indicator: no
Segmented circle: no

Airport Communications

WX AWOS-3 at SAR (13 nm SE): 118.375 (618-443-3296)

Nearby radio navigation aids

VOR radial/distance  VOR name  Freq  Var
TOYr178/28.9TROY VORTAC116.0004E
FAMr021/37.8FARMINGTON VORTAC115.7001E
ENLr251/37.9CENTRALIA VORTAC115.0004E

Airport Services

Runway Information

Runway E/W

Dimensions: 1600 x 70 ft. / 488 x 21 m
Surface: turf
RUNWAY E  RUNWAY W
Traffic pattern: leftleft

Airport Ownership and Management from official FAA records

Ownership: Privately-owned
Owner: ERVIN F. SMITH
9803LL ROAD
RED BUD, IL 62278
Phone 618-475-2223
Manager: ERVIN F. SMITH
9803LL ROAD
RED BUD, IL 62278
Phone 618-475-2223

Additional Remarks

FOR CD CTC ST LOUIS APCH AT 314-890-1018.

Instrument Procedures

There are no published instrument procedures at 4IS5.

Some nearby airports with instrument procedures:

KSAR - Sparta Community Airport-Hunter Field (13 nm SE)
KBLV - Scott Air Force Base/MidAmerica Airport (18 nm N)
KCPS - St Louis Downtown Airport (21 nm NW)
KFES - Festus Memorial Airport (21 nm W)
KPCD - Perryville Regional Airport (24 nm S)
 
Loc | Ops | Rwys | IFR | FBO | Links
Com | Nav | Svcs | Stats | Notes
Area around 4IS5 (Smith Airport)
 
Road maps at: MapQuest Bing Google
 
Aerial photo
No photo
 
Sectional chart

 
Airport distance calculator
Flying to Smith Airport? Find the distance to fly.

From to 4IS5

Sunrise and sunset
Times for 07-Dec-2022
 Local
(UTC-6)
 Zulu
(UTC)
Morning civil twilight06:3512:35
Sunrise07:0413:04
Sunset16:3822:38
Evening civil twilight17:0823:08

Current date and time
Zulu (UTC)  07-Dec-2022 14:55:27
Local (UTC-6)  07-Dec-2022 08:55:27
 
METAR
KSAR 
13nm SE 
071435Z AUTO 00000KT 1 1/2SM BR OVC002 07/07 A3026 RMK AO2 T00720072
KBLV 
17nm N 
071355Z 35003KT 2 3/4SM BR BKN029 OVC034 08/08 A3021 RMK AO2A VIS 2 1/4 RWY14L BKN V OVC SLPNO ALSTG ESTMD RVRNO TSNO $
KCPS 
21nm NW 
071409Z 00000KT 3SM BR OVC030 08/06 A3023 RMK AO2 T00780061
KPCD 
24nm S 
071435Z AUTO 33005KT 3/4SM BR OVC003 08/08 A3024 RMK AO2 T00820082
TAF
KBLV 
17nm N 
071252Z 0712/0814 03006KT 3200 BR OVC020 QNH3010INS BECMG 0715/0716 35006KT 8000 BR SCT020 BKN030 QNH3024INS BECMG 0721/0722 36006KT 9000 BR SCT010 OVC020 QNH3025INS BECMG 0801/0802 01006KT 8000 BR BKN010 OVC020 QNH3024INS TX11/0720Z TN07/0713Z
KCPS 
21nm NW 
071254Z 0713/0812 VRB03KT 5SM BR SCT005 BKN025 TEMPO 0713/0715 BKN005 FM071600 00000KT P6SM OVC012 FM072100 VRB04KT P6SM BKN025 FM080400 VRB04KT P6SM BKN040 FM081000 08006KT 5SM -RA BR OVC015
NOTAMs
Click for the latest NOTAMs
NOTAMs are issued by the DoD/FAA and will open in a separate window not controlled by AirNav.

 

 
 

Would you like to see your business listed on this page?

 If your business provides an interesting product or service to pilots, flight crews, aircraft, or users of the Smith Airport, you should consider listing it here.  To start the listing process, click on the button below
 
Add a business
 

Other Pages about Smith Airport

Update a link
 
Copyright © AirNav, LLC. All rights reserved. Privacy Policy  Contact